createdAt,value
2022-09-02T00:03:09.209Z,3.73
2022-09-02T00:08:34.416Z,1.60
2022-09-02T00:13:57.470Z,1.57
2022-09-02T00:19:22.224Z,2.80
2022-09-02T00:24:44.694Z,1.50
2022-09-02T00:30:07.986Z,1.33
2022-09-02T00:35:30.982Z,1.53
2022-09-02T00:40:56.155Z,1.50
2022-09-02T00:54:06.420Z,1.53
2022-09-02T00:59:54.606Z,2.17
2022-09-02T01:05:19.461Z,1.63
2022-09-02T01:10:42.847Z,2.13
2022-09-02T01:16:24.962Z,1.60
2022-09-02T01:21:50.003Z,1.93
2022-09-02T01:27:20.904Z,2.43
2022-09-02T01:32:43.249Z,1.30
2022-09-02T01:38:05.644Z,1.63
2022-09-02T01:43:29.933Z,1.47
2022-09-02T01:48:52.760Z,1.93
2022-09-02T01:54:15.240Z,1.67
2022-09-02T01:59:39.025Z,1.40
2022-09-02T02:05:02.860Z,1.87
2022-09-02T02:10:25.822Z,3.10
2022-09-02T02:15:48.532Z,1.73
2022-09-02T02:21:11.578Z,1.67
2022-09-02T02:26:35.118Z,3.20
2022-09-02T02:31:59.157Z,2.37
2022-09-02T02:37:25.368Z,1.47
2022-09-02T02:42:49.335Z,1.90
2022-09-02T02:48:13.531Z,3.23
2022-09-02T02:53:38.457Z,2.20
2022-09-02T02:59:03.545Z,1.50
2022-09-02T03:04:27.929Z,4.47
2022-09-02T03:09:50.505Z,1.73
2022-09-02T03:15:14.228Z,1.80
2022-09-02T03:20:37.263Z,2.03
2022-09-02T03:26:02.940Z,1.50
2022-09-02T03:31:29.994Z,1.47
2022-09-02T03:36:54.311Z,1.97
2022-09-02T03:42:19.631Z,1.97
2022-09-02T03:47:51.319Z,1.93
2022-09-02T03:53:19.508Z,3.00
2022-09-02T03:58:47.407Z,2.30
2022-09-02T04:04:10.017Z,1.57
2022-09-02T04:09:34.331Z,2.97
2022-09-02T04:14:57.904Z,2.90
2022-09-02T04:20:20.752Z,2.27
2022-09-02T04:25:44.523Z,1.60
2022-09-02T04:31:10.898Z,1.47
2022-09-02T04:36:34.584Z,2.20
2022-09-02T04:42:01.408Z,1.80
2022-09-02T04:47:26.723Z,2.77
2022-09-02T04:52:51.126Z,1.90
2022-09-02T04:58:14.975Z,1.63
2022-09-02T05:03:38.419Z,2.57
2022-09-02T05:09:04.421Z,1.73
2022-09-02T05:14:31.031Z,7.57
2022-09-02T05:19:56.754Z,2.60
2022-09-02T05:25:19.523Z,1.77
2022-09-02T05:30:43.188Z,1.40
2022-09-02T05:36:09.929Z,1.57
2022-09-02T05:41:33.370Z,1.67
2022-09-02T05:46:57.887Z,2.57
2022-09-02T05:52:20.635Z,1.63
2022-09-02T05:57:46.430Z,1.70
2022-09-02T06:03:08.796Z,1.50
2022-09-02T06:08:35.049Z,3.07
2022-09-02T06:13:57.562Z,2.00
2022-09-02T06:19:20.285Z,1.70
2022-09-02T06:24:44.802Z,1.90
2022-09-02T06:30:13.719Z,2.57
2022-09-02T06:35:39.305Z,3.87
2022-09-02T06:41:05.384Z,2.83
2022-09-02T06:46:41.098Z,2.37
2022-09-02T06:52:05.656Z,3.40
2022-09-02T06:57:34.169Z,3.27
2022-09-02T07:03:20.769Z,2.33
2022-09-02T07:08:44.603Z,1.97
2022-09-02T07:14:08.373Z,3.10
2022-09-02T07:19:32.199Z,2.20
2022-09-02T07:24:56.312Z,2.20
2022-09-02T07:30:20.587Z,2.90
2022-09-02T07:35:49.433Z,2.80
2022-09-02T07:41:14.410Z,2.47
2022-09-02T07:46:37.695Z,2.47
2022-09-02T07:52:00.707Z,4.43
2022-09-02T07:57:23.816Z,6.00
2022-09-02T08:02:47.622Z,2.43
2022-09-02T08:08:20.383Z,2.87
2022-09-02T08:13:42.600Z,7.83
2022-09-02T08:19:06.465Z,1.83
2022-09-02T08:24:32.562Z,2.17
2022-09-02T08:29:55.304Z,2.57
2022-09-02T08:35:17.964Z,1.60
2022-09-02T08:40:42.883Z,1.83
2022-09-02T08:46:08.712Z,4.67
2022-09-02T08:51:53.622Z,1.70
2022-09-02T08:57:16.314Z,2.00
2022-09-02T09:02:56.867Z,1.67
2022-09-02T09:08:31.616Z,1.55
2022-09-02T09:14:06.555Z,1.40
2022-09-02T09:19:47.057Z,1.67
2022-09-02T09:25:12.380Z,1.40
2022-09-02T09:30:34.881Z,1.58
2022-09-02T09:35:58.826Z,1.70
2022-09-02T09:41:25.316Z,1.60
2022-09-02T09:47:01.589Z,2.88
2022-09-02T09:52:29.287Z,4.65
2022-09-02T09:57:53.367Z,1.95
2022-09-02T10:03:24.371Z,3.42
2022-09-02T10:09:26.690Z,2.03
2022-09-02T10:14:50.504Z,1.73
2022-09-02T10:20:22.855Z,2.63
2022-09-02T10:26:00.461Z,0.90
2022-09-02T10:31:29.074Z,1.15
2022-09-02T10:37:06.695Z,3.35
2022-09-02T10:42:47.789Z,1.23
2022-09-02T10:48:28.680Z,0.77
2022-09-02T10:54:03.301Z,1.40
2022-09-02T10:59:49.319Z,2.30
2022-09-02T11:05:29.884Z,1.23
2022-09-02T11:11:29.646Z,1.33
2022-09-02T11:17:04.789Z,1.08
2022-09-02T11:22:45.320Z,0.88
2022-09-02T11:28:22.668Z,2.00
2022-09-02T11:33:59.089Z,1.77
2022-09-02T11:40:11.566Z,0.85
2022-09-02T11:45:39.707Z,1.02
2022-09-02T11:51:07.409Z,1.17
2022-09-02T11:56:39.883Z,1.20
2022-09-02T12:02:02.846Z,1.10
2022-09-02T12:07:26.706Z,1.25
2022-09-02T12:12:56.631Z,0.98
2022-09-02T12:18:31.201Z,2.08
2022-09-02T12:23:56.823Z,2.20
2022-09-02T12:29:19.479Z,1.40
2022-09-02T12:34:42.844Z,1.27
2022-09-02T12:40:17.775Z,1.45
2022-09-02T12:45:44.472Z,8.88
2022-09-02T12:51:07.285Z,1.63
2022-09-02T12:56:29.738Z,0.90
2022-09-02T13:02:08.840Z,0.90
2022-09-02T13:08:02.483Z,0.90
2022-09-02T13:13:43.877Z,1.25
2022-09-02T13:19:37.116Z,1.98
2022-09-02T13:25:13.206Z,0.93
2022-09-02T13:31:08.255Z,4.45
2022-09-02T13:36:41.144Z,2.40
2022-09-02T13:42:14.999Z,2.55
2022-09-02T13:47:47.158Z,0.75
2022-09-02T13:58:57.933Z,1.48
2022-09-02T14:04:21.369Z,0.60
2022-09-02T14:09:44.660Z,0.75
2022-09-02T14:15:10.460Z,0.82
2022-09-02T14:20:33.123Z,4.10
2022-09-02T14:25:58.756Z,3.83
2022-09-02T14:31:30.734Z,1.08
2022-09-02T14:36:53.203Z,0.95
2022-09-02T14:42:15.969Z,3.17
2022-09-02T14:47:39.811Z,2.25
2022-09-02T14:53:09.352Z,8.90
2022-09-02T14:58:32.858Z,2.05
2022-09-02T15:03:57.177Z,3.88
2022-09-02T15:09:20.344Z,1.60
2022-09-02T15:14:43.105Z,1.30
2022-09-02T15:20:11.107Z,1.35
2022-09-02T15:25:34.439Z,1.25
2022-09-02T15:31:01.519Z,1.52
2022-09-02T15:36:26.319Z,2.03
2022-09-02T15:41:50.093Z,1.15
2022-09-02T15:47:12.585Z,1.70
2022-09-02T15:52:36.001Z,2.15
2022-09-02T15:57:58.215Z,1.08
2022-09-02T16:03:20.808Z,2.78
2022-09-02T16:08:44.523Z,0.65
2022-09-02T16:14:08.436Z,0.75
2022-09-02T16:19:31.368Z,2.05
2022-09-02T16:24:53.583Z,0.65
2022-09-02T16:30:16.311Z,1.10
2022-09-02T16:35:40.055Z,1.20
2022-09-02T16:41:03.419Z,1.30
2022-09-02T16:46:28.365Z,0.95
2022-09-02T16:51:54.018Z,4.55
2022-09-02T16:57:21.006Z,1.25
2022-09-02T17:02:43.398Z,0.95
2022-09-02T17:08:07.038Z,1.38
2022-09-02T17:13:29.444Z,1.58
2022-09-02T17:18:53.797Z,0.80
2022-09-02T17:24:17.184Z,1.98
2022-09-02T17:29:55.425Z,3.20
2022-09-02T17:35:19.058Z,2.85
2022-09-02T17:41:00.098Z,2.42
2022-09-02T17:46:22.711Z,5.00
2022-09-02T17:51:46.605Z,4.32
2022-09-02T17:57:31.579Z,2.53
2022-09-02T18:03:22.599Z,2.65
2022-09-02T18:09:02.319Z,3.03
2022-09-02T18:14:38.579Z,2.50
2022-09-02T18:20:26.113Z,2.25
2022-09-02T18:25:58.020Z,6.22
2022-09-02T18:31:54.651Z,12.20
2022-09-02T18:37:38.362Z,12.05
2022-09-02T18:43:06.852Z,19.00
2022-09-02T18:48:36.043Z,13.45
2022-09-02T18:54:06.514Z,17.50
2022-09-02T18:59:51.290Z,12.30
2022-09-02T19:05:17.620Z,10.17
2022-09-02T19:10:40.108Z,7.70
2022-09-02T19:16:05.029Z,4.40
2022-09-02T19:21:36.883Z,4.93
2022-09-02T19:27:07.325Z,21.93
2022-09-02T19:32:33.776Z,69.50
2022-09-02T19:37:56.637Z,75.50
2022-09-02T19:43:20.373Z,79.77
2022-09-02T19:48:42.816Z,65.87
2022-09-02T19:54:05.414Z,32.33
2022-09-02T19:59:28.526Z,33.87
2022-09-02T20:04:51.055Z,28.53
2022-09-02T20:10:13.656Z,40.83
2022-09-02T20:15:37.935Z,23.30
2022-09-02T20:21:00.832Z,24.50
2022-09-02T20:26:34.393Z,29.23
2022-09-02T20:31:58.059Z,42.30
2022-09-02T20:37:32.724Z,32.13
2022-09-02T20:42:55.169Z,19.80
2022-09-02T20:48:22.554Z,24.97
2022-09-02T20:53:48.030Z,15.87
2022-09-02T20:59:31.313Z,8.70
2022-09-02T21:05:00.891Z,11.33
2022-09-02T21:10:30.555Z,9.33
2022-09-02T21:15:56.577Z,7.17
2022-09-02T21:21:21.848Z,8.70
2022-09-02T21:27:20.840Z,8.37
2022-09-02T21:32:54.899Z,6.50
2022-09-02T21:38:29.923Z,4.77
2022-09-02T21:43:56.089Z,4.00
2022-09-02T21:49:37.159Z,3.83
2022-09-02T21:55:11.849Z,3.50
2022-09-02T22:00:35.031Z,5.33
2022-09-02T22:06:17.243Z,4.33
2022-09-02T22:11:53.378Z,8.67
2022-09-02T22:17:36.027Z,12.73
2022-09-02T22:23:09.646Z,7.93
2022-09-02T22:28:39.694Z,7.70
2022-09-02T22:34:05.394Z,7.80
2022-09-02T22:39:45.872Z,6.23
2022-09-02T22:46:02.735Z,3.80
2022-09-02T22:51:52.235Z,3.73
2022-09-02T22:57:30.214Z,2.33
2022-09-02T23:03:08.982Z,5.00
2022-09-02T23:08:37.162Z,3.27
2022-09-02T23:14:21.200Z,4.27
2022-09-02T23:19:56.486Z,1.80
2022-09-02T23:25:40.892Z,4.00
2022-09-02T23:31:18.824Z,3.63
2022-09-02T23:36:58.525Z,1.50
2022-09-02T23:42:21.207Z,2.17
2022-09-02T23:48:19.838Z,2.37
2022-09-02T23:53:45.631Z,1.30
2022-09-02T23:59:30.459Z,2.37
